sensor_id;sensor_type;location;lat;lon;timestamp;pressure;altitude;pressure_sealevel;temperature;humidity
50310;BME280;36207;51.850;21.698;2023-07-31T00:01:05;99277.22;;;19.45;66.91
50310;BME280;36207;51.850;21.698;2023-07-31T00:03:31;99277.48;;;19.43;66.83
50310;BME280;36207;51.850;21.698;2023-07-31T00:05:57;99273.61;;;19.41;67.01
50310;BME280;36207;51.850;21.698;2023-07-31T00:08:23;99272.88;;;19.39;67.08
50310;BME280;36207;51.850;21.698;2023-07-31T00:10:51;99274.11;;;19.37;67.16
50310;BME280;36207;51.850;21.698;2023-07-31T00:13:18;99269.64;;;19.35;67.31
50310;BME280;36207;51.850;21.698;2023-07-31T00:15:44;99271.34;;;19.33;67.35
50310;BME280;36207;51.850;21.698;2023-07-31T00:18:10;99274.59;;;19.32;67.54
50310;BME280;36207;51.850;21.698;2023-07-31T00:20:36;99278.98;;;19.28;67.59
50310;BME280;36207;51.850;21.698;2023-07-31T00:23:02;99280.09;;;19.25;67.56
50310;BME280;36207;51.850;21.698;2023-07-31T00:25:28;99276.11;;;19.23;67.43
50310;BME280;36207;51.850;21.698;2023-07-31T00:27:54;99275.55;;;19.20;67.54
50310;BME280;36207;51.850;21.698;2023-07-31T00:30:20;99275.82;;;19.16;67.74
50310;BME280;36207;51.850;21.698;2023-07-31T00:32:48;99273.33;;;19.11;67.72
50310;BME280;36207;51.850;21.698;2023-07-31T00:35:14;99271.98;;;19.07;67.75
50310;BME280;36207;51.850;21.698;2023-07-31T00:37:40;99276.06;;;19.04;67.70
50310;BME280;36207;51.850;21.698;2023-07-31T00:40:07;99277.63;;;18.98;67.63
50310;BME280;36207;51.850;21.698;2023-07-31T00:42:33;99278.33;;;18.94;67.68
50310;BME280;36207;51.850;21.698;2023-07-31T00:44:59;99281.95;;;18.90;67.86
50310;BME280;36207;51.850;21.698;2023-07-31T00:47:26;99285.41;;;18.86;68.04
50310;BME280;36207;51.850;21.698;2023-07-31T00:49:52;99282.39;;;18.83;68.00
50310;BME280;36207;51.850;21.698;2023-07-31T00:52:19;99280.56;;;18.79;68.26
50310;BME280;36207;51.850;21.698;2023-07-31T00:54:45;99283.11;;;18.75;68.22
50310;BME280;36207;51.850;21.698;2023-07-31T00:57:12;99284.57;;;18.72;68.20
50310;BME280;36207;51.850;21.698;2023-07-31T00:59:38;99281.35;;;18.71;68.25
50310;BME280;36207;51.850;21.698;2023-07-31T01:02:05;99278.77;;;18.68;68.43
50310;BME280;36207;51.850;21.698;2023-07-31T01:04:31;99278.09;;;18.65;68.72
50310;BME280;36207;51.850;21.698;2023-07-31T01:13:00;99278.73;;;18.57;68.78
50310;BME280;36207;51.850;21.698;2023-07-31T01:15:26;99273.09;;;18.57;69.01
50310;BME280;36207;51.850;21.698;2023-07-31T01:17:52;99277.98;;;18.55;69.11
50310;BME280;36207;51.850;21.698;2023-07-31T01:20:21;99280.30;;;18.54;69.06
50310;BME280;36207;51.850;21.698;2023-07-31T01:26:11;99282.50;;;18.53;69.40
50310;BME280;36207;51.850;21.698;2023-07-31T01:31:11;99276.98;;;18.47;69.25
50310;BME280;36207;51.850;21.698;2023-07-31T01:33:40;99278.09;;;18.42;69.40
50310;BME280;36207;51.850;21.698;2023-07-31T01:36:07;99272.68;;;18.38;69.41
50310;BME280;36207;51.850;21.698;2023-07-31T01:38:33;99272.45;;;18.34;69.58
50310;BME280;36207;51.850;21.698;2023-07-31T01:40:59;99276.39;;;18.33;69.72
50310;BME280;36207;51.850;21.698;2023-07-31T01:43:25;99275.73;;;18.33;69.68
50310;BME280;36207;51.850;21.698;2023-07-31T01:45:51;99274.17;;;18.30;69.64
50310;BME280;36207;51.850;21.698;2023-07-31T01:48:17;99273.86;;;18.27;69.66
50310;BME280;36207;51.850;21.698;2023-07-31T01:50:43;99277.22;;;18.24;69.49
50310;BME280;36207;51.850;21.698;2023-07-31T01:53:09;99277.66;;;18.20;69.50
50310;BME280;36207;51.850;21.698;2023-07-31T01:55:38;99285.41;;;18.18;69.43
50310;BME280;36207;51.850;21.698;2023-07-31T01:58:04;99290.48;;;18.15;69.46
50310;BME280;36207;51.850;21.698;2023-07-31T02:00:30;99291.55;;;18.10;69.39
50310;BME280;36207;51.850;21.698;2023-07-31T02:02:56;99289.06;;;18.03;69.12
50310;BME280;36207;51.850;21.698;2023-07-31T02:05:22;99284.41;;;17.96;69.30
50310;BME280;36207;51.850;21.698;2023-07-31T02:07:48;99285.63;;;17.89;69.32
50310;BME280;36207;51.850;21.698;2023-07-31T02:10:14;99283.55;;;17.82;69.59
50310;BME280;36207;51.850;21.698;2023-07-31T02:12:40;99278.73;;;17.77;69.52
50310;BME280;36207;51.850;21.698;2023-07-31T02:15:06;99283.73;;;17.73;69.57
50310;BME280;36207;51.850;21.698;2023-07-31T02:17:33;99288.11;;;17.71;69.87
50310;BME280;36207;51.850;21.698;2023-07-31T02:19:59;99292.91;;;17.68;69.91
50310;BME280;36207;51.850;21.698;2023-07-31T02:22:25;99297.01;;;17.67;70.17
50310;BME280;36207;51.850;21.698;2023-07-31T02:24:51;99295.02;;;17.67;70.17
50310;BME280;36207;51.850;21.698;2023-07-31T02:27:17;99295.13;;;17.68;70.22
50310;BME280;36207;51.850;21.698;2023-07-31T02:29:43;99298.00;;;17.69;70.22
50310;BME280;36207;51.850;21.698;2023-07-31T02:32:09;99294.63;;;17.69;70.32
50310;BME280;36207;51.850;21.698;2023-07-31T02:34:35;99291.02;;;17.70;70.68
50310;BME280;36207;51.850;21.698;2023-07-31T02:37:01;99291.50;;;17.73;70.71
50310;BME280;36207;51.850;21.698;2023-07-31T02:39:27;99290.48;;;17.74;70.53
50310;BME280;36207;51.850;21.698;2023-07-31T02:41:53;99289.81;;;17.75;70.47
50310;BME280;36207;51.850;21.698;2023-07-31T02:44:19;99292.20;;;17.76;70.41
50310;BME280;36207;51.850;21.698;2023-07-31T02:46:47;99293.60;;;17.76;70.61
50310;BME280;36207;51.850;21.698;2023-07-31T02:49:13;99290.98;;;17.78;70.82
50310;BME280;36207;51.850;21.698;2023-07-31T02:51:39;99290.70;;;17.77;70.44
50310;BME280;36207;51.850;21.698;2023-07-31T02:54:05;99289.73;;;17.77;70.51
50310;BME280;36207;51.850;21.698;2023-07-31T02:56:31;99287.58;;;17.77;70.77
50310;BME280;36207;51.850;21.698;2023-07-31T02:58:57;99294.96;;;17.76;70.74
50310;BME280;36207;51.850;21.698;2023-07-31T03:01:23;99298.54;;;17.74;70.53
50310;BME280;36207;51.850;21.698;2023-07-31T03:03:49;99303.77;;;17.73;70.57
50310;BME280;36207;51.850;21.698;2023-07-31T03:06:15;99308.27;;;17.72;70.81
50310;BME280;36207;51.850;21.698;2023-07-31T03:08:41;99313.05;;;17.71;70.70
50310;BME280;36207;51.850;21.698;2023-07-31T03:11:07;99313.10;;;17.71;70.77
50310;BME280;36207;51.850;21.698;2023-07-31T03:13:33;99318.36;;;17.72;70.72
50310;BME280;36207;51.850;21.698;2023-07-31T03:15:59;99323.27;;;17.72;70.83
50310;BME280;36207;51.850;21.698;2023-07-31T03:18:25;99331.63;;;17.71;71.16
50310;BME280;36207;51.850;21.698;2023-07-31T03:20:50;99334.66;;;17.68;71.21
50310;BME280;36207;51.850;21.698;2023-07-31T03:23:16;99333.74;;;17.65;71.14
50310;BME280;36207;51.850;21.698;2023-07-31T03:25:55;99333.55;;;17.63;71.23
50310;BME280;36207;51.850;21.698;2023-07-31T03:28:22;99330.20;;;17.60;71.10
50310;BME280;36207;51.850;21.698;2023-07-31T03:30:48;99327.23;;;17.58;70.98
50310;BME280;36207;51.850;21.698;2023-07-31T03:33:14;99329.07;;;17.55;71.15
50310;BME280;36207;51.850;21.698;2023-07-31T03:35:40;99327.04;;;17.53;71.07
50310;BME280;36207;51.850;21.698;2023-07-31T03:38:06;99324.48;;;17.52;71.26
50310;BME280;36207;51.850;21.698;2023-07-31T03:40:32;99322.41;;;17.54;71.30
50310;BME280;36207;51.850;21.698;2023-07-31T03:42:58;99325.02;;;17.57;71.22
50310;BME280;36207;51.850;21.698;2023-07-31T03:45:24;99332.73;;;17.60;71.30
50310;BME280;36207;51.850;21.698;2023-07-31T03:47:50;99331.83;;;17.64;71.52
50310;BME280;36207;51.850;21.698;2023-07-31T03:50:17;99332.45;;;17.68;71.51
50310;BME280;36207;51.850;21.698;2023-07-31T03:52:42;99334.69;;;17.72;71.37
50310;BME280;36207;51.850;21.698;2023-07-31T03:55:09;99335.21;;;17.77;71.60
50310;BME280;36207;51.850;21.698;2023-07-31T03:57:35;99335.02;;;17.82;71.65
50310;BME280;36207;51.850;21.698;2023-07-31T04:00:00;99335.02;;;17.90;71.71
50310;BME280;36207;51.850;21.698;2023-07-31T04:02:27;99336.43;;;17.95;71.73
50310;BME280;36207;51.850;21.698;2023-07-31T04:04:53;99336.23;;;18.00;71.72
50310;BME280;36207;51.850;21.698;2023-07-31T04:07:18;99340.02;;;18.04;71.51
50310;BME280;36207;51.850;21.698;2023-07-31T04:09:44;99336.16;;;18.08;71.52
50310;BME280;36207;51.850;21.698;2023-07-31T04:12:10;99338.39;;;18.12;71.69
50310;BME280;36207;51.850;21.698;2023-07-31T04:14:37;99341.89;;;18.15;71.82
50310;BME280;36207;51.850;21.698;2023-07-31T04:17:03;99345.58;;;18.17;71.72
50310;BME280;36207;51.850;21.698;2023-07-31T04:19:29;99350.70;;;18.19;71.89
50310;BME280;36207;51.850;21.698;2023-07-31T04:21:55;99353.83;;;18.22;71.89
50310;BME280;36207;51.850;21.698;2023-07-31T04:24:21;99354.70;;;18.25;71.82
50310;BME280;36207;51.850;21.698;2023-07-31T04:26:51;99351.98;;;18.28;71.93
50310;BME280;36207;51.850;21.698;2023-07-31T04:29:17;99352.04;;;18.30;71.82
50310;BME280;36207;51.850;21.698;2023-07-31T04:31:44;99351.30;;;18.33;71.71
50310;BME280;36207;51.850;21.698;2023-07-31T04:34:10;99353.73;;;18.36;71.53
50310;BME280;36207;51.850;21.698;2023-07-31T04:36:37;99351.99;;;18.39;71.60
50310;BME280;36207;51.850;21.698;2023-07-31T04:39:03;99349.11;;;18.41;71.62
50310;BME280;36207;51.850;21.698;2023-07-31T04:41:29;99351.15;;;18.44;71.99
50310;BME280;36207;51.850;21.698;2023-07-31T04:43:55;99355.76;;;18.48;71.85
50310;BME280;36207;51.850;21.698;2023-07-31T04:46:21;99354.48;;;18.50;71.66
50310;BME280;36207;51.850;21.698;2023-07-31T04:48:47;99351.38;;;18.52;71.79
50310;BME280;36207;51.850;21.698;2023-07-31T04:51:13;99350.05;;;18.54;71.76
50310;BME280;36207;51.850;21.698;2023-07-31T04:53:39;99349.72;;;18.56;71.59
50310;BME280;36207;51.850;21.698;2023-07-31T04:56:05;99347.40;;;18.57;71.49
50310;BME280;36207;51.850;21.698;2023-07-31T04:58:31;99349.05;;;18.59;71.48
50310;BME280;36207;51.850;21.698;2023-07-31T05:00:57;99350.36;;;18.60;71.49
50310;BME280;36207;51.850;21.698;2023-07-31T05:03:23;99347.05;;;18.62;71.70
50310;BME280;36207;51.850;21.698;2023-07-31T05:05:50;99348.40;;;18.66;71.92
50310;BME280;36207;51.850;21.698;2023-07-31T05:08:16;99352.88;;;18.69;71.82
50310;BME280;36207;51.850;21.698;2023-07-31T05:10:43;99356.90;;;18.71;71.93
50310;BME280;36207;51.850;21.698;2023-07-31T05:13:09;99357.91;;;18.72;71.53
50310;BME280;36207;51.850;21.698;2023-07-31T05:15:35;99363.83;;;18.74;71.58
50310;BME280;36207;51.850;21.698;2023-07-31T05:18:01;99360.90;;;18.76;71.55
50310;BME280;36207;51.850;21.698;2023-07-31T05:20:27;99361.02;;;18.76;71.53
50310;BME280;36207;51.850;21.698;2023-07-31T05:22:53;99358.64;;;18.77;71.59
50310;BME280;36207;51.850;21.698;2023-07-31T05:25:19;99363.83;;;18.80;71.50
50310;BME280;36207;51.850;21.698;2023-07-31T05:27:45;99367.27;;;18.85;71.53
50310;BME280;36207;51.850;21.698;2023-07-31T05:30:11;99366.23;;;18.88;71.47
50310;BME280;36207;51.850;21.698;2023-07-31T05:32:37;99369.09;;;18.93;71.52
50310;BME280;36207;51.850;21.698;2023-07-31T05:35:04;99373.70;;;18.97;71.53
50310;BME280;36207;51.850;21.698;2023-07-31T05:37:30;99373.59;;;19.01;71.47
50310;BME280;36207;51.850;21.698;2023-07-31T05:39:57;99374.35;;;19.05;71.32
50310;BME280;36207;51.850;21.698;2023-07-31T05:42:23;99376.45;;;19.09;71.50
50310;BME280;36207;51.850;21.698;2023-07-31T05:44:49;99379.29;;;19.14;71.22
50310;BME280;36207;51.850;21.698;2023-07-31T05:47:15;99377.39;;;19.18;71.09
50310;BME280;36207;51.850;21.698;2023-07-31T05:49:42;99375.05;;;19.22;71.21
50310;BME280;36207;51.850;21.698;2023-07-31T05:52:08;99374.77;;;19.26;71.19
50310;BME280;36207;51.850;21.698;2023-07-31T05:54:34;99376.86;;;19.28;71.07
50310;BME280;36207;51.850;21.698;2023-07-31T05:57:00;99382.27;;;19.32;71.01
50310;BME280;36207;51.850;21.698;2023-07-31T05:59:26;99388.42;;;19.36;70.87
50310;BME280;36207;51.850;21.698;2023-07-31T06:01:52;99393.13;;;19.39;70.86
50310;BME280;36207;51.850;21.698;2023-07-31T06:04:18;99396.67;;;19.40;70.81
50310;BME280;36207;51.850;21.698;2023-07-31T06:06:44;99400.00;;;19.43;70.58
50310;BME280;36207;51.850;21.698;2023-07-31T06:09:10;99404.40;;;19.44;70.39
50310;BME280;36207;51.850;21.698;2023-07-31T06:11:37;99409.27;;;19.44;70.44
50310;BME280;36207;51.850;21.698;2023-07-31T06:14:03;99411.89;;;19.45;70.46
50310;BME280;36207;51.850;21.698;2023-07-31T06:16:29;99411.14;;;19.45;70.34
50310;BME280;36207;51.850;21.698;2023-07-31T06:18:55;99408.60;;;19.45;70.02
50310;BME280;36207;51.850;21.698;2023-07-31T06:21:21;99407.84;;;19.45;70.09
50310;BME280;36207;51.850;21.698;2023-07-31T06:23:47;99404.48;;;19.47;70.06
50310;BME280;36207;51.850;21.698;2023-07-31T06:26:13;99405.63;;;19.47;69.78
50310;BME280;36207;51.850;21.698;2023-07-31T06:28:39;99407.73;;;19.47;69.54
50310;BME280;36207;51.850;21.698;2023-07-31T06:31:05;99407.05;;;19.49;69.96
50310;BME280;36207;51.850;21.698;2023-07-31T06:33:31;99409.91;;;19.52;70.06
50310;BME280;36207;51.850;21.698;2023-07-31T06:35:57;99410.13;;;19.53;69.80
50310;BME280;36207;51.850;21.698;2023-07-31T06:38:27;99413.45;;;19.54;69.75
50310;BME280;36207;51.850;21.698;2023-07-31T06:40:53;99413.72;;;19.53;69.28
50310;BME280;36207;51.850;21.698;2023-07-31T06:43:19;99412.85;;;19.53;69.41
50310;BME280;36207;51.850;21.698;2023-07-31T06:45:45;99412.55;;;19.56;69.59
50310;BME280;36207;51.850;21.698;2023-07-31T06:48:12;99419.22;;;19.60;69.56
50310;BME280;36207;51.850;21.698;2023-07-31T06:50:38;99421.30;;;19.63;69.43
50310;BME280;36207;51.850;21.698;2023-07-31T06:53:04;99425.70;;;19.66;69.20
50310;BME280;36207;51.850;21.698;2023-07-31T06:55:30;99422.33;;;19.69;69.35
50310;BME280;36207;51.850;21.698;2023-07-31T06:57:56;99422.77;;;19.74;69.55
50310;BME280;36207;51.850;21.698;2023-07-31T07:00:23;99424.27;;;19.78;69.39
50310;BME280;36207;51.850;21.698;2023-07-31T07:02:49;99426.16;;;19.82;69.24
50310;BME280;36207;51.850;21.698;2023-07-31T07:05:17;99428.85;;;19.85;68.63
50310;BME280;36207;51.850;21.698;2023-07-31T07:07:43;99432.09;;;19.89;68.72
50310;BME280;36207;51.850;21.698;2023-07-31T07:10:10;99428.95;;;19.94;68.86
50310;BME280;36207;51.850;21.698;2023-07-31T07:12:36;99425.67;;;20.01;69.06
50310;BME280;36207;51.850;21.698;2023-07-31T07:15:02;99428.47;;;20.12;69.03
50310;BME280;36207;51.850;21.698;2023-07-31T07:17:29;99427.71;;;20.22;69.11
50310;BME280;36207;51.850;21.698;2023-07-31T07:20:00;99427.11;;;20.35;68.85
50310;BME280;36207;51.850;21.698;2023-07-31T07:22:26;99424.54;;;20.49;69.09
50310;BME280;36207;51.850;21.698;2023-07-31T07:24:53;99426.58;;;20.64;68.90
50310;BME280;36207;51.850;21.698;2023-07-31T07:27:19;99419.48;;;20.82;69.43
50310;BME280;36207;51.850;21.698;2023-07-31T07:29:46;99417.46;;;21.04;69.35
50310;BME280;36207;51.850;21.698;2023-07-31T07:32:13;99416.15;;;21.22;68.98
50310;BME280;36207;51.850;21.698;2023-07-31T07:34:39;99418.65;;;21.40;69.33
50310;BME280;36207;51.850;21.698;2023-07-31T07:37:05;99415.36;;;21.60;69.44
50310;BME280;36207;51.850;21.698;2023-07-31T07:39:31;99413.26;;;21.79;69.42
50310;BME280;36207;51.850;21.698;2023-07-31T07:41:57;99415.95;;;21.95;68.66
50310;BME280;36207;51.850;21.698;2023-07-31T07:44:23;99413.54;;;22.07;68.84
50310;BME280;36207;51.850;21.698;2023-07-31T07:46:49;99411.77;;;22.19;68.33
50310;BME280;36207;51.850;21.698;2023-07-31T07:49:15;99412.34;;;22.24;67.78
50310;BME280;36207;51.850;21.698;2023-07-31T07:51:41;99415.65;;;22.28;67.27
50310;BME280;36207;51.850;21.698;2023-07-31T07:54:07;99412.66;;;22.33;66.84
50310;BME280;36207;51.850;21.698;2023-07-31T07:56:33;99409.79;;;22.39;66.93
50310;BME280;36207;51.850;21.698;2023-07-31T07:58:59;99410.40;;;22.52;67.70
50310;BME280;36207;51.850;21.698;2023-07-31T08:01:25;99408.95;;;22.70;67.73
50310;BME280;36207;51.850;21.698;2023-07-31T08:03:51;99412.15;;;22.88;67.39
50310;BME280;36207;51.850;21.698;2023-07-31T08:06:17;99411.56;;;22.97;66.74
50310;BME280;36207;51.850;21.698;2023-07-31T08:08:43;99410.02;;;23.03;67.05
50310;BME280;36207;51.850;21.698;2023-07-31T08:11:09;99412.62;;;23.09;66.72
50310;BME280;36207;51.850;21.698;2023-07-31T08:13:36;99409.83;;;23.15;66.04
50310;BME280;36207;51.850;21.698;2023-07-31T08:16:04;99409.71;;;23.17;66.14
50310;BME280;36207;51.850;21.698;2023-07-31T08:18:31;99414.32;;;23.24;66.42
50310;BME280;36207;51.850;21.698;2023-07-31T08:20:58;99414.98;;;23.34;66.18
50310;BME280;36207;51.850;21.698;2023-07-31T08:23:24;99414.02;;;23.38;65.85
50310;BME280;36207;51.850;21.698;2023-07-31T08:25:50;99414.33;;;23.38;65.63
50310;BME280;36207;51.850;21.698;2023-07-31T08:28:16;99416.56;;;23.38;64.62
50310;BME280;36207;51.850;21.698;2023-07-31T08:30:42;99420.34;;;23.34;65.09
50310;BME280;36207;51.850;21.698;2023-07-31T08:33:08;99422.67;;;23.40;65.38
50310;BME280;36207;51.850;21.698;2023-07-31T08:35:34;99424.59;;;23.46;64.74
50310;BME280;36207;51.850;21.698;2023-07-31T08:38:01;99423.66;;;23.47;64.75
50310;BME280;36207;51.850;21.698;2023-07-31T08:40:27;99428.66;;;23.51;64.74
50310;BME280;36207;51.850;21.698;2023-07-31T08:42:55;99429.63;;;23.55;64.13
50310;BME280;36207;51.850;21.698;2023-07-31T08:45:28;99429.84;;;23.58;64.57
50310;BME280;36207;51.850;21.698;2023-07-31T08:47:56;99428.98;;;23.63;64.18
50310;BME280;36207;51.850;21.698;2023-07-31T08:50:23;99431.13;;;23.61;62.78
50310;BME280;36207;51.850;21.698;2023-07-31T08:52:51;99435.24;;;23.54;62.22
50310;BME280;36207;51.850;21.698;2023-07-31T08:55:18;99436.04;;;23.47;62.60
50310;BME280;36207;51.850;21.698;2023-07-31T08:57:51;99435.40;;;23.41;62.33
50310;BME280;36207;51.850;21.698;2023-07-31T09:00:19;99429.64;;;23.36;62.72
50310;BME280;36207;51.850;21.698;2023-07-31T09:02:59;99428.13;;;23.33;62.79
50310;BME280;36207;51.850;21.698;2023-07-31T09:05:31;99430.37;;;23.33;63.03
50310;BME280;36207;51.850;21.698;2023-07-31T09:07:57;99431.77;;;23.34;63.08
50310;BME280;36207;51.850;21.698;2023-07-31T09:10:24;99432.16;;;23.33;63.01
50310;BME280;36207;51.850;21.698;2023-07-31T09:12:54;99430.73;;;23.34;62.75
50310;BME280;36207;51.850;21.698;2023-07-31T09:15:21;99428.89;;;23.33;62.84
50310;BME280;36207;51.850;21.698;2023-07-31T09:17:59;99430.58;;;23.34;62.72
50310;BME280;36207;51.850;21.698;2023-07-31T09:20:26;99430.57;;;23.35;62.75
50310;BME280;36207;51.850;21.698;2023-07-31T09:22:52;99435.05;;;23.36;62.26
50310;BME280;36207;51.850;21.698;2023-07-31T09:25:23;99430.09;;;23.36;62.46
50310;BME280;36207;51.850;21.698;2023-07-31T09:28:10;99425.96;;;23.47;62.88
50310;BME280;36207;51.850;21.698;2023-07-31T09:33:11;99424.23;;;23.74;61.45
50310;BME280;36207;51.850;21.698;2023-07-31T09:35:37;99427.66;;;23.84;61.70
50310;BME280;36207;51.850;21.698;2023-07-31T09:38:11;99430.19;;;23.90;61.61
50310;BME280;36207;51.850;21.698;2023-07-31T09:40:40;99433.25;;;23.98;61.56
50310;BME280;36207;51.850;21.698;2023-07-31T09:43:08;99429.46;;;24.12;62.47
50310;BME280;36207;51.850;21.698;2023-07-31T09:45:43;99427.61;;;24.32;62.14
50310;BME280;36207;51.850;21.698;2023-07-31T09:48:18;99424.66;;;24.45;60.92
50310;BME280;36207;51.850;21.698;2023-07-31T09:50:48;99425.84;;;24.50;59.60
50310;BME280;36207;51.850;21.698;2023-07-31T09:53:18;99425.63;;;24.49;58.70
50310;BME280;36207;51.850;21.698;2023-07-31T09:55:44;99427.27;;;24.47;58.62
50310;BME280;36207;51.850;21.698;2023-07-31T09:58:11;99430.37;;;24.48;58.52
50310;BME280;36207;51.850;21.698;2023-07-31T10:00:38;99428.75;;;24.47;58.34
50310;BME280;36207;51.850;21.698;2023-07-31T10:03:06;99428.54;;;24.46;57.65
50310;BME280;36207;51.850;21.698;2023-07-31T10:05:53;99422.81;;;24.45;57.38
50310;BME280;36207;51.850;21.698;2023-07-31T10:08:26;99424.27;;;24.45;57.73
50310;BME280;36207;51.850;21.698;2023-07-31T10:10:58;99425.27;;;24.41;56.48
50310;BME280;36207;51.850;21.698;2023-07-31T10:13:25;99423.54;;;24.34;56.40
50310;BME280;36207;51.850;21.698;2023-07-31T10:15:54;99428.50;;;24.33;55.81
50310;BME280;36207;51.850;21.698;2023-07-31T10:18:20;99431.20;;;24.30;55.23
50310;BME280;36207;51.850;21.698;2023-07-31T10:20:47;99428.10;;;24.27;55.92
50310;BME280;36207;51.850;21.698;2023-07-31T10:23:14;99424.98;;;24.29;56.36
50310;BME280;36207;51.850;21.698;2023-07-31T10:25:42;99419.00;;;24.33;56.40
50310;BME280;36207;51.850;21.698;2023-07-31T10:28:09;99417.16;;;24.39;56.21
50310;BME280;36207;51.850;21.698;2023-07-31T10:30:36;99418.11;;;24.42;55.86
50310;BME280;36207;51.850;21.698;2023-07-31T10:33:05;99415.17;;;24.44;56.40
50310;BME280;36207;51.850;21.698;2023-07-31T10:35:31;99417.06;;;24.47;55.20
50310;BME280;36207;51.850;21.698;2023-07-31T10:38:12;99417.52;;;24.42;54.45
50310;BME280;36207;51.850;21.698;2023-07-31T10:40:38;99416.85;;;24.36;54.61
50310;BME280;36207;51.850;21.698;2023-07-31T10:43:05;99415.84;;;24.43;55.43
50310;BME280;36207;51.850;21.698;2023-07-31T10:45:36;99417.77;;;24.54;53.93
50310;BME280;36207;51.850;21.698;2023-07-31T10:50:32;99415.92;;;24.66;54.94
50310;BME280;36207;51.850;21.698;2023-07-31T10:52:59;99411.60;;;24.79;54.67
50310;BME280;36207;51.850;21.698;2023-07-31T10:55:28;99410.31;;;24.87;54.23
50310;BME280;36207;51.850;21.698;2023-07-31T10:57:56;99410.70;;;24.88;52.50
50310;BME280;36207;51.850;21.698;2023-07-31T11:00:27;99410.27;;;24.88;53.13
50310;BME280;36207;51.850;21.698;2023-07-31T11:03:02;99409.58;;;24.85;53.17
50310;BME280;36207;51.850;21.698;2023-07-31T11:08:28;99400.69;;;25.00;53.91
50310;BME280;36207;51.850;21.698;2023-07-31T11:13:30;99396.73;;;25.32;54.45
50310;BME280;36207;51.850;21.698;2023-07-31T11:15:57;99399.29;;;25.43;52.44
50310;BME280;36207;51.850;21.698;2023-07-31T11:18:24;99399.78;;;25.47;52.04
50310;BME280;36207;51.850;21.698;2023-07-31T11:20:50;99397.94;;;25.55;53.00
50310;BME280;36207;51.850;21.698;2023-07-31T11:23:17;99398.61;;;25.61;52.42
50310;BME280;36207;51.850;21.698;2023-07-31T11:25:43;99395.20;;;25.58;52.15
50310;BME280;36207;51.850;21.698;2023-07-31T11:28:12;99398.82;;;25.50;52.23
50310;BME280;36207;51.850;21.698;2023-07-31T11:30:39;99394.68;;;25.45;51.77
50310;BME280;36207;51.850;21.698;2023-07-31T11:33:10;99397.28;;;25.42;52.42
50310;BME280;36207;51.850;21.698;2023-07-31T11:35:44;99396.89;;;25.37;52.06
50310;BME280;36207;51.850;21.698;2023-07-31T11:38:12;99390.75;;;25.30;52.66
50310;BME280;36207;51.850;21.698;2023-07-31T11:40:42;99390.23;;;25.37;52.59
50310;BME280;36207;51.850;21.698;2023-07-31T11:43:09;99388.18;;;25.49;52.50
50310;BME280;36207;51.850;21.698;2023-07-31T11:45:38;99383.28;;;25.59;51.72
50310;BME280;36207;51.850;21.698;2023-07-31T11:48:05;99378.89;;;25.65;50.95
50310;BME280;36207;51.850;21.698;2023-07-31T11:50:33;99376.80;;;25.69;50.84
50310;BME280;36207;51.850;21.698;2023-07-31T11:53:03;99372.93;;;25.76;50.33
50310;BME280;36207;51.850;21.698;2023-07-31T11:55:33;99371.27;;;25.82;49.91
50310;BME280;36207;51.850;21.698;2023-07-31T11:57:59;99367.73;;;25.89;50.46
50310;BME280;36207;51.850;21.698;2023-07-31T12:00:27;99369.77;;;25.94;50.89
50310;BME280;36207;51.850;21.698;2023-07-31T12:02:53;99370.80;;;26.00;50.80
50310;BME280;36207;51.850;21.698;2023-07-31T12:05:21;99371.02;;;26.04;49.38
50310;BME280;36207;51.850;21.698;2023-07-31T12:07:52;99369.52;;;25.98;47.64
50310;BME280;36207;51.850;21.698;2023-07-31T12:10:29;99371.55;;;25.97;47.54
50310;BME280;36207;51.850;21.698;2023-07-31T12:12:59;99371.70;;;25.98;47.01
50310;BME280;36207;51.850;21.698;2023-07-31T12:15:37;99365.24;;;26.03;47.96
50310;BME280;36207;51.850;21.698;2023-07-31T12:18:05;99362.36;;;26.09;48.28
50310;BME280;36207;51.850;21.698;2023-07-31T12:20:32;99362.46;;;26.12;47.05
50310;BME280;36207;51.850;21.698;2023-07-31T12:22:59;99366.65;;;26.14;46.71
50310;BME280;36207;51.850;21.698;2023-07-31T12:25:30;99359.92;;;26.14;46.13
50310;BME280;36207;51.850;21.698;2023-07-31T12:27:57;99356.55;;;26.16;46.41
50310;BME280;36207;51.850;21.698;2023-07-31T12:30:34;99352.74;;;26.18;44.72
50310;BME280;36207;51.850;21.698;2023-07-31T12:33:12;99349.84;;;26.21;44.22
50310;BME280;36207;51.850;21.698;2023-07-31T12:35:42;99347.79;;;26.23;44.78
50310;BME280;36207;51.850;21.698;2023-07-31T12:38:09;99349.20;;;26.24;45.37
50310;BME280;36207;51.850;21.698;2023-07-31T12:40:39;99344.20;;;26.25;45.84
50310;BME280;36207;51.850;21.698;2023-07-31T12:43:06;99339.23;;;26.21;46.47
50310;BME280;36207;51.850;21.698;2023-07-31T12:45:32;99341.61;;;26.19;47.04
50310;BME280;36207;51.850;21.698;2023-07-31T12:47:59;99338.30;;;26.17;47.29
50310;BME280;36207;51.850;21.698;2023-07-31T12:50:26;99337.50;;;26.13;47.10
50310;BME280;36207;51.850;21.698;2023-07-31T12:52:56;99335.15;;;26.10;47.26
50310;BME280;36207;51.850;21.698;2023-07-31T12:55:23;99332.84;;;26.10;47.26
50310;BME280;36207;51.850;21.698;2023-07-31T12:57:50;99329.48;;;26.07;46.74
50310;BME280;36207;51.850;21.698;2023-07-31T13:00:16;99328.78;;;25.98;44.86
50310;BME280;36207;51.850;21.698;2023-07-31T13:02:42;99325.57;;;25.84;44.90
50310;BME280;36207;51.850;21.698;2023-07-31T13:05:08;99325.62;;;25.76;45.76
50310;BME280;36207;51.850;21.698;2023-07-31T13:07:34;99322.80;;;25.71;45.69
50310;BME280;36207;51.850;21.698;2023-07-31T13:10:01;99324.00;;;25.64;45.43
50310;BME280;36207;51.850;21.698;2023-07-31T13:12:27;99318.31;;;25.57;45.76